createdAt,value
2018-08-17T00:01:49.176Z,4.03
2018-08-17T00:04:51.549Z,4.00
2018-08-17T00:07:53.800Z,3.77
2018-08-17T00:10:56.060Z,3.70
2018-08-17T00:13:58.232Z,3.80
2018-08-17T00:17:00.515Z,4.30
2018-08-17T00:20:02.854Z,3.93
2018-08-17T00:23:05.201Z,4.53
2018-08-17T00:26:07.578Z,4.13
2018-08-17T00:29:09.844Z,4.40
2018-08-17T00:32:12.100Z,4.07
2018-08-17T00:35:14.612Z,4.53
2018-08-17T00:38:16.859Z,3.60
2018-08-17T00:41:19.277Z,4.10
2018-08-17T00:44:21.500Z,4.40
2018-08-17T00:47:23.672Z,3.93
2018-08-17T00:50:25.954Z,4.43
2018-08-17T00:53:28.216Z,4.13
2018-08-17T00:56:30.529Z,4.33
2018-08-17T00:59:32.877Z,4.37
2018-08-17T01:02:35.155Z,4.00
2018-08-17T01:05:37.438Z,4.43
2018-08-17T01:08:39.666Z,4.13
2018-08-17T01:11:41.965Z,4.20
2018-08-17T01:14:44.171Z,4.63
2018-08-17T01:17:46.522Z,4.27
2018-08-17T01:20:48.862Z,4.50
2018-08-17T01:23:51.351Z,4.07
2018-08-17T01:26:53.723Z,3.70
2018-08-17T01:29:56.189Z,4.47
2018-08-17T01:32:58.450Z,4.27
2018-08-17T01:36:00.744Z,4.03
2018-08-17T01:39:04.336Z,4.13
2018-08-17T01:42:06.634Z,4.37
2018-08-17T01:45:08.862Z,4.37
2018-08-17T01:48:12.174Z,4.30
2018-08-17T01:51:14.364Z,4.37
2018-08-17T01:54:16.529Z,4.50
2018-08-17T01:57:18.849Z,4.77
2018-08-17T02:00:21.090Z,4.40
2018-08-17T02:03:23.319Z,4.70
2018-08-17T02:06:25.557Z,4.40
2018-08-17T02:09:27.777Z,4.27
2018-08-17T02:12:30.163Z,4.43
2018-08-17T02:15:32.420Z,4.87
2018-08-17T02:18:34.729Z,4.30
2018-08-17T02:21:37.018Z,4.10
2018-08-17T02:24:39.256Z,3.60
2018-08-17T02:27:42.571Z,4.03
2018-08-17T02:30:44.791Z,4.77
2018-08-17T02:33:46.991Z,4.60
2018-08-17T02:36:49.480Z,4.23
2018-08-17T02:39:51.748Z,4.77
2018-08-17T02:42:53.963Z,4.23
2018-08-17T02:45:56.186Z,4.10
2018-08-17T02:48:58.381Z,4.20
2018-08-17T02:52:00.670Z,4.70
2018-08-17T02:55:02.982Z,4.87
2018-08-17T02:58:05.233Z,4.73
2018-08-17T03:01:07.534Z,4.90
2018-08-17T03:04:09.712Z,4.50
2018-08-17T03:07:12.056Z,4.20
2018-08-17T03:10:20.980Z,4.53
2018-08-17T03:13:23.263Z,3.87
2018-08-17T03:16:25.461Z,4.80
2018-08-17T03:19:27.670Z,4.73
2018-08-17T03:22:29.938Z,4.60
2018-08-17T03:25:32.252Z,4.80
2018-08-17T03:28:34.456Z,4.67
2018-08-17T03:31:36.761Z,4.57
2018-08-17T03:34:38.979Z,5.23
2018-08-17T03:37:41.180Z,4.87
2018-08-17T03:40:43.618Z,4.87
2018-08-17T03:43:45.792Z,5.00
2018-08-17T03:46:48.161Z,5.27
2018-08-17T03:49:50.509Z,5.20
2018-08-17T03:52:52.730Z,5.00
2018-08-17T03:55:54.990Z,4.57
2018-08-17T03:58:57.385Z,5.67
2018-08-17T04:01:59.729Z,5.57
2018-08-17T04:05:02.097Z,5.07
2018-08-17T04:08:05.368Z,4.67
2018-08-17T04:11:07.545Z,4.63
2018-08-17T04:14:09.912Z,4.80
2018-08-17T04:17:12.182Z,5.30
2018-08-17T04:20:14.388Z,5.70
2018-08-17T04:23:16.609Z,5.30
2018-08-17T04:26:18.847Z,5.23
2018-08-17T04:29:21.086Z,6.17
2018-08-17T04:32:23.228Z,5.47
2018-08-17T04:35:25.551Z,6.00
2018-08-17T04:38:27.840Z,6.33
2018-08-17T04:41:30.159Z,5.67
2018-08-17T04:44:32.402Z,6.20
2018-08-17T04:47:34.594Z,6.63
2018-08-17T04:50:36.851Z,6.63
2018-08-17T04:53:39.162Z,6.23
2018-08-17T04:56:41.335Z,6.23
2018-08-17T04:59:43.485Z,5.33
2018-08-17T05:02:45.711Z,6.00
2018-08-17T05:05:47.907Z,5.30
2018-08-17T05:08:50.167Z,4.67
2018-08-17T05:11:52.377Z,4.63
2018-08-17T05:14:54.646Z,4.40
2018-08-17T05:17:56.852Z,4.67
2018-08-17T05:20:59.089Z,5.13
2018-08-17T05:24:01.326Z,4.40
2018-08-17T05:27:04.225Z,4.43
2018-08-17T05:30:06.413Z,4.57
2018-08-17T05:33:08.696Z,8.53
2018-08-17T05:36:11.095Z,5.30
2018-08-17T05:39:13.412Z,5.40
2018-08-17T05:42:15.725Z,5.10
2018-08-17T05:45:17.920Z,5.63
2018-08-17T05:48:20.125Z,5.23
2018-08-17T05:51:22.363Z,7.17
2018-08-17T05:54:24.647Z,7.40
2018-08-17T05:57:26.931Z,6.97
2018-08-17T06:00:29.185Z,7.40
2018-08-17T06:03:31.510Z,8.17
2018-08-17T06:06:34.465Z,8.90
2018-08-17T06:09:36.801Z,9.27
2018-08-17T06:12:38.980Z,9.10
2018-08-17T06:15:41.211Z,8.77
2018-08-17T06:18:43.442Z,9.27
2018-08-17T06:21:45.647Z,10.07
2018-08-17T06:24:48.825Z,9.87
2018-08-17T06:27:51.058Z,10.57
2018-08-17T06:30:53.380Z,10.33
2018-08-17T06:33:55.610Z,11.03
2018-08-17T06:36:57.791Z,11.73
2018-08-17T06:40:00.006Z,11.77
2018-08-17T06:43:02.286Z,12.97
2018-08-17T06:46:04.518Z,14.07
2018-08-17T06:49:06.805Z,14.57
2018-08-17T06:52:09.038Z,14.90
2018-08-17T06:55:11.990Z,16.50
2018-08-17T06:58:14.272Z,15.03
2018-08-17T07:01:16.593Z,16.60
2018-08-17T07:04:18.805Z,16.20
2018-08-17T07:07:21.113Z,17.13
2018-08-17T07:10:23.402Z,17.30
2018-08-17T07:13:25.759Z,17.30
2018-08-17T07:16:27.982Z,16.73
2018-08-17T07:19:30.470Z,18.87
2018-08-17T07:22:34.619Z,17.63
2018-08-17T07:25:36.832Z,18.70
2018-08-17T07:28:39.088Z,17.50
2018-08-17T07:31:41.354Z,19.50
2018-08-17T07:34:43.645Z,19.00
2018-08-17T07:37:45.837Z,17.73
2018-08-17T07:40:48.045Z,18.37
2018-08-17T07:43:50.353Z,17.73
2018-08-17T07:46:52.531Z,17.73
2018-08-17T07:49:54.734Z,17.43
2018-08-17T07:52:56.918Z,18.07
2018-08-17T07:55:59.141Z,18.10
2018-08-17T07:59:01.484Z,16.90
2018-08-17T08:02:03.731Z,17.90
2018-08-17T08:05:07.161Z,15.33
2018-08-17T08:08:09.511Z,17.73
2018-08-17T08:11:11.763Z,17.70
2018-08-17T08:14:14.042Z,17.00
2018-08-17T08:17:16.182Z,16.53
2018-08-17T08:20:29.536Z,18.10
2018-08-17T08:23:31.565Z,15.73
2018-08-17T08:26:33.760Z,17.40
2018-08-17T08:29:36.171Z,16.20
2018-08-17T08:32:39.594Z,16.33
2018-08-17T08:35:41.771Z,15.17
2018-08-17T08:38:43.968Z,15.97
2018-08-17T08:41:46.370Z,13.17
2018-08-17T08:44:48.644Z,16.03
2018-08-17T08:47:50.936Z,14.93
2018-08-17T08:50:53.168Z,15.07
2018-08-17T08:53:55.465Z,15.87
2018-08-17T08:56:57.965Z,14.03
2018-08-17T09:00:00.161Z,14.27
2018-08-17T09:03:02.345Z,14.53
2018-08-17T09:06:04.679Z,12.83
2018-08-17T09:09:07.479Z,14.13
2018-08-17T09:12:09.742Z,13.63
2018-08-17T09:15:12.456Z,12.67
2018-08-17T09:18:14.700Z,13.70
2018-08-17T09:21:17.069Z,14.83
2018-08-17T09:24:19.220Z,15.63
2018-08-17T09:27:21.430Z,15.37
2018-08-17T09:30:24.743Z,14.57
2018-08-17T09:33:26.925Z,13.30
2018-08-17T09:36:29.148Z,13.50
2018-08-17T09:39:31.402Z,14.73
2018-08-17T09:42:33.673Z,14.00
2018-08-17T09:45:36.228Z,12.90
2018-08-17T09:48:38.567Z,13.23
2018-08-17T09:51:40.854Z,13.00
2018-08-17T09:54:43.204Z,12.80
2018-08-17T09:57:45.478Z,13.07
2018-08-17T10:00:53.510Z,12.33
2018-08-17T10:04:01.578Z,12.00
2018-08-17T10:07:10.381Z,11.57
2018-08-17T10:10:16.611Z,10.73
2018-08-17T10:13:18.836Z,11.60
2018-08-17T10:16:21.090Z,10.07
2018-08-17T10:19:23.358Z,10.07
2018-08-17T10:22:25.559Z,8.93
2018-08-17T10:25:27.823Z,8.83
2018-08-17T10:28:30.074Z,9.23
2018-08-17T10:31:32.360Z,9.47
2018-08-17T10:34:34.560Z,8.93
2018-08-17T10:37:36.746Z,10.70
2018-08-17T10:40:39.240Z,8.77
2018-08-17T10:43:41.437Z,10.17
2018-08-17T10:46:43.762Z,9.87
2018-08-17T10:49:45.960Z,9.77
2018-08-17T10:52:50.650Z,10.07
2018-08-17T10:55:52.866Z,11.43
2018-08-17T10:58:55.173Z,10.57
2018-08-17T11:01:58.436Z,9.77
2018-08-17T11:05:00.692Z,9.17
2018-08-17T11:08:03.044Z,9.73
2018-08-17T11:11:06.475Z,9.50
2018-08-17T11:14:08.709Z,9.67
2018-08-17T11:17:11.042Z,9.20
2018-08-17T11:20:14.503Z,11.57
2018-08-17T11:23:17.119Z,9.37
2018-08-17T11:26:19.284Z,10.23
2018-08-17T11:29:21.449Z,9.43
2018-08-17T11:32:23.706Z,8.17
2018-08-17T11:35:25.957Z,8.87
2018-08-17T11:38:28.306Z,7.60
2018-08-17T11:41:30.711Z,8.10
2018-08-17T11:44:32.851Z,7.73
2018-08-17T11:47:35.149Z,8.73
2018-08-17T11:50:37.412Z,8.07
2018-08-17T11:53:39.638Z,8.67
2018-08-17T11:56:41.942Z,8.90
2018-08-17T11:59:48.791Z,8.70
2018-08-17T12:02:51.097Z,7.50
2018-08-17T12:05:53.373Z,7.40
2018-08-17T12:08:55.757Z,7.70
2018-08-17T12:11:57.999Z,8.03
2018-08-17T12:15:00.583Z,7.60
2018-08-17T12:18:02.884Z,6.70
2018-08-17T12:21:05.240Z,7.07
2018-08-17T12:24:07.640Z,6.50
2018-08-17T12:27:11.042Z,6.50
2018-08-17T12:30:13.324Z,6.80
2018-08-17T12:33:15.547Z,6.03
2018-08-17T12:36:17.897Z,6.00
2018-08-17T12:39:20.455Z,6.63
2018-08-17T12:42:22.851Z,6.20
2018-08-17T12:45:57.473Z,7.00
2018-08-17T12:48:59.764Z,6.33
2018-08-17T12:52:01.970Z,6.87
2018-08-17T12:55:05.113Z,6.17
2018-08-17T12:58:07.426Z,6.50
2018-08-17T13:01:09.658Z,6.47
2018-08-17T13:04:12.595Z,6.73
2018-08-17T13:07:14.968Z,7.03
2018-08-17T13:10:17.502Z,7.03
2018-08-17T13:13:19.824Z,6.73
2018-08-17T13:16:22.043Z,6.00
2018-08-17T13:19:24.262Z,4.97
2018-08-17T13:22:26.464Z,5.90
2018-08-17T13:25:28.788Z,6.23
2018-08-17T13:28:31.120Z,6.20
2018-08-17T13:31:33.401Z,5.73
2018-08-17T13:34:35.620Z,5.20
2018-08-17T13:37:38.018Z,5.13
2018-08-17T13:40:40.224Z,4.70
2018-08-17T13:43:42.682Z,4.83
2018-08-17T13:46:44.900Z,5.20
2018-08-17T13:49:47.078Z,4.97
2018-08-17T13:52:49.321Z,3.70
2018-08-17T13:55:51.657Z,3.63
2018-08-17T13:58:53.883Z,3.60
2018-08-17T14:01:56.111Z,3.50
2018-08-17T14:04:59.538Z,3.33
2018-08-17T14:08:01.742Z,3.90
2018-08-17T14:11:04.082Z,4.30
2018-08-17T14:14:06.321Z,4.23
2018-08-17T14:17:08.728Z,4.30
2018-08-17T14:20:13.866Z,4.70
2018-08-17T14:23:16.172Z,4.77
2018-08-17T14:26:18.479Z,5.20
2018-08-17T14:29:20.777Z,5.27
2018-08-17T14:32:23.084Z,5.90
2018-08-17T14:35:25.504Z,6.87
2018-08-17T14:38:29.023Z,6.30
2018-08-17T14:41:31.269Z,6.87
2018-08-17T14:44:34.819Z,7.00
2018-08-17T14:51:43.156Z,8.20
2018-08-17T14:54:45.468Z,8.30
2018-08-17T14:57:47.710Z,8.50
2018-08-17T15:00:49.970Z,8.63
2018-08-17T15:03:52.204Z,7.80
2018-08-17T15:06:55.817Z,7.70
2018-08-17T15:09:58.213Z,7.63
2018-08-17T15:13:00.503Z,8.40
2018-08-17T15:16:02.835Z,8.40
2018-08-17T15:19:05.204Z,9.07
2018-08-17T15:22:07.548Z,8.80
2018-08-17T15:25:09.873Z,8.73
2018-08-17T15:28:12.302Z,8.83
2018-08-17T15:31:14.847Z,7.97
2018-08-17T15:34:17.175Z,8.97
2018-08-17T15:37:19.639Z,9.80
2018-08-17T15:40:21.994Z,9.53
2018-08-17T15:43:24.336Z,9.77
2018-08-17T15:46:26.769Z,10.20
2018-08-17T15:49:34.954Z,11.20
2018-08-17T15:52:37.278Z,12.57
2018-08-17T15:55:39.554Z,12.23
2018-08-17T15:58:41.808Z,11.80
2018-08-17T16:01:44.217Z,12.17
2018-08-17T16:04:46.580Z,12.23
2018-08-17T16:07:48.727Z,12.57
2018-08-17T16:10:51.061Z,12.67
2018-08-17T16:13:53.379Z,11.10
2018-08-17T16:16:55.658Z,11.63
2018-08-17T16:19:57.977Z,12.37
2018-08-17T16:23:01.426Z,11.03
2018-08-17T16:26:03.861Z,11.57
2018-08-17T16:29:06.250Z,11.87
2018-08-17T16:32:08.490Z,11.23
2018-08-17T16:35:11.185Z,11.90
2018-08-17T16:38:13.495Z,10.40
2018-08-17T16:41:15.693Z,12.10
2018-08-17T16:44:17.914Z,11.37
2018-08-17T16:47:20.278Z,10.77
2018-08-17T16:50:22.617Z,10.53
2018-08-17T16:53:24.907Z,11.97
2018-08-17T16:56:30.109Z,10.30
2018-08-17T16:59:32.317Z,10.27
2018-08-17T17:02:34.509Z,9.77
2018-08-17T17:05:36.796Z,10.43
2018-08-17T17:08:39.015Z,11.60
2018-08-17T17:11:41.291Z,10.53
2018-08-17T17:14:44.129Z,11.10
2018-08-17T17:17:54.519Z,10.40
2018-08-17T17:20:56.697Z,10.97
2018-08-17T17:23:59.385Z,11.47
2018-08-17T17:27:01.894Z,13.37
2018-08-17T17:30:05.444Z,11.43
2018-08-17T17:33:07.928Z,11.23
2018-08-17T17:36:10.142Z,10.70
2018-08-17T17:39:13.638Z,11.17
2018-08-17T17:42:15.790Z,11.90
2018-08-17T17:45:17.974Z,11.33
2018-08-17T17:48:20.128Z,11.80
2018-08-17T17:51:22.300Z,11.80
2018-08-17T17:54:25.302Z,12.43
2018-08-17T17:57:27.501Z,13.40
2018-08-17T18:00:30.071Z,12.40
2018-08-17T18:03:32.225Z,12.40
2018-08-17T18:06:34.415Z,13.03
2018-08-17T18:09:36.674Z,11.83
2018-08-17T18:12:38.903Z,11.67
2018-08-17T18:15:41.141Z,11.67
2018-08-17T18:18:43.371Z,13.03
2018-08-17T18:21:45.674Z,13.30
2018-08-17T18:24:47.924Z,13.27
2018-08-17T18:27:50.114Z,13.33
2018-08-17T18:30:52.417Z,12.30
2018-08-17T18:33:54.682Z,13.43
2018-08-17T18:36:56.964Z,12.40
2018-08-17T18:39:59.213Z,13.63
2018-08-17T18:43:01.472Z,13.37
2018-08-17T18:46:03.765Z,13.37
2018-08-17T18:49:06.242Z,13.30
2018-08-17T18:52:08.532Z,13.03
2018-08-17T18:55:10.816Z,12.77
2018-08-17T18:58:13.014Z,13.53
2018-08-17T19:01:15.250Z,12.70
2018-08-17T19:04:17.630Z,12.77
2018-08-17T19:07:19.931Z,13.57
2018-08-17T19:10:22.183Z,13.10
2018-08-17T19:13:24.449Z,13.67
2018-08-17T19:16:26.745Z,13.67
2018-08-17T19:19:28.962Z,13.10
2018-08-17T19:22:36.628Z,13.37
2018-08-17T19:25:39.722Z,12.83
2018-08-17T19:28:42.016Z,13.37
2018-08-17T19:31:50.100Z,12.87
2018-08-17T19:34:52.305Z,11.53
2018-08-17T19:37:54.562Z,12.37
2018-08-17T19:40:57.616Z,12.27
2018-08-17T19:43:59.806Z,12.13
2018-08-17T19:47:02.227Z,10.70
2018-08-17T19:50:04.573Z,11.13
2018-08-17T19:53:06.930Z,10.20
2018-08-17T19:56:09.395Z,9.37
2018-08-17T19:59:11.663Z,9.73
2018-08-17T20:02:13.894Z,9.83
2018-08-17T20:05:16.124Z,9.30
2018-08-17T20:08:18.463Z,9.13
2018-08-17T20:11:20.738Z,9.17
2018-08-17T20:14:22.939Z,9.03
2018-08-17T20:17:25.285Z,9.50
2018-08-17T20:20:27.473Z,10.50
2018-08-17T20:23:29.810Z,9.50
2018-08-17T20:26:32.446Z,8.93
2018-08-17T20:29:34.428Z,9.53
2018-08-17T20:32:36.637Z,10.20
2018-08-17T20:35:38.946Z,9.60
2018-08-17T20:38:41.349Z,9.67
2018-08-17T20:41:43.629Z,8.70
2018-08-17T20:44:45.782Z,10.43
2018-08-17T20:47:48.059Z,9.40
2018-08-17T20:50:50.213Z,9.47
2018-08-17T20:53:54.629Z,9.03
2018-08-17T20:56:57.054Z,9.80
2018-08-17T20:59:59.254Z,9.60
2018-08-17T21:03:01.702Z,9.37
2018-08-17T21:06:04.047Z,10.13
2018-08-17T21:09:06.998Z,8.03
2018-08-17T21:12:09.298Z,8.93
2018-08-17T21:15:11.619Z,9.07
2018-08-17T21:18:13.810Z,8.30
2018-08-17T21:21:16.102Z,7.80
2018-08-17T21:24:18.404Z,8.50
2018-08-17T21:27:20.750Z,7.57
2018-08-17T21:30:23.001Z,8.10
2018-08-17T21:33:25.284Z,7.37
2018-08-17T21:36:27.480Z,7.70
2018-08-17T21:39:29.785Z,7.33
2018-08-17T21:42:31.974Z,6.87
2018-08-17T21:45:34.190Z,7.10
2018-08-17T21:48:37.448Z,6.57
2018-08-17T21:51:39.640Z,6.80
2018-08-17T21:54:41.888Z,6.67
2018-08-17T21:57:44.114Z,6.27
2018-08-17T22:00:46.370Z,6.90
2018-08-17T22:03:48.638Z,6.67
2018-08-17T22:06:50.924Z,7.00
2018-08-17T22:09:53.734Z,6.30
2018-08-17T22:12:55.975Z,6.70
2018-08-17T22:15:58.422Z,6.70
2018-08-17T22:19:00.710Z,6.80
2018-08-17T22:22:02.875Z,7.33
2018-08-17T22:25:10.921Z,6.50
2018-08-17T22:28:13.298Z,6.30
2018-08-17T22:31:18.965Z,6.67
2018-08-17T22:34:21.149Z,6.70
2018-08-17T22:37:23.472Z,6.70
2018-08-17T22:40:25.674Z,6.63
2018-08-17T22:43:27.920Z,6.70
2018-08-17T22:46:30.165Z,6.27
2018-08-17T22:49:32.883Z,6.60
2018-08-17T22:52:35.154Z,7.03
2018-08-17T22:55:37.403Z,6.30
2018-08-17T22:58:45.168Z,7.67
2018-08-17T23:01:47.350Z,6.93
2018-08-17T23:04:49.672Z,7.53
2018-08-17T23:07:51.985Z,7.33
2018-08-17T23:10:54.339Z,7.50
2018-08-17T23:13:59.337Z,7.93
2018-08-17T23:17:01.722Z,7.53
2018-08-17T23:20:04.730Z,7.50
2018-08-17T23:23:07.340Z,7.00
2018-08-17T23:26:09.552Z,7.13
2018-08-17T23:29:11.833Z,7.57
2018-08-17T23:32:14.065Z,7.43
2018-08-17T23:35:16.443Z,7.23
2018-08-17T23:38:18.734Z,6.67
2018-08-17T23:41:21.109Z,7.47
2018-08-17T23:44:23.340Z,7.77
2018-08-17T23:47:25.533Z,7.97
2018-08-17T23:50:27.794Z,7.63
2018-08-17T23:53:30.113Z,7.43
2018-08-17T23:56:32.332Z,7.83
2018-08-17T23:59:34.563Z,7.90
